sensor_id;sensor_type;location;lat;lon;timestamp;P1;durP1;ratioP1;P2;durP2;ratioP2
18170;SDS011;9210;48.358;10.902;2022-10-13T00:00:49;96.03;;;26.90;;
18170;SDS011;9210;48.358;10.902;2022-10-13T00:03:18;50.53;;;22.73;;
18170;SDS011;9210;48.358;10.902;2022-10-13T00:05:47;81.67;;;24.23;;
18170;SDS011;9210;48.358;10.902;2022-10-13T00:08:16;60.63;;;21.97;;
18170;SDS011;9210;48.358;10.902;2022-10-13T00:10:47;144.00;;;25.97;;
18170;SDS011;9210;48.358;10.902;2022-10-13T00:13:20;50.83;;;23.83;;
18170;SDS011;9210;48.358;10.902;2022-10-13T00:15:48;41.97;;;21.63;;
18170;SDS011;9210;48.358;10.902;2022-10-13T00:18:17;66.67;;;23.73;;
18170;SDS011;9210;48.358;10.902;2022-10-13T00:20:47;35.40;;;18.77;;
18170;SDS011;9210;48.358;10.902;2022-10-13T00:23:16;29.50;;;17.53;;
18170;SDS011;9210;48.358;10.902;2022-10-13T00:25:45;42.83;;;20.10;;
18170;SDS011;9210;48.358;10.902;2022-10-13T00:28:16;31.67;;;17.60;;
18170;SDS011;9210;48.358;10.902;2022-10-13T00:30:45;93.87;;;19.63;;
18170;SDS011;9210;48.358;10.902;2022-10-13T00:33:14;70.03;;;20.17;;
18170;SDS011;9210;48.358;10.902;2022-10-13T00:35:43;25.37;;;16.53;;
18170;SDS011;9210;48.358;10.902;2022-10-13T00:38:13;96.97;;;18.47;;
18170;SDS011;9210;48.358;10.902;2022-10-13T00:40:42;129.73;;;19.80;;
18170;SDS011;9210;48.358;10.902;2022-10-13T00:43:19;28.63;;;18.17;;
18170;SDS011;9210;48.358;10.902;2022-10-13T00:45:48;28.53;;;16.70;;
18170;SDS011;9210;48.358;10.902;2022-10-13T00:48:17;50.57;;;17.40;;
18170;SDS011;9210;48.358;10.902;2022-10-13T00:50:46;39.07;;;18.03;;
18170;SDS011;9210;48.358;10.902;2022-10-13T00:53:15;25.50;;;16.60;;
18170;SDS011;9210;48.358;10.902;2022-10-13T00:55:45;27.83;;;15.97;;
18170;SDS011;9210;48.358;10.902;2022-10-13T00:58:15;81.23;;;19.10;;
18170;SDS011;9210;48.358;10.902;2022-10-13T01:00:46;27.53;;;16.13;;
18170;SDS011;9210;48.358;10.902;2022-10-13T01:03:16;35.77;;;17.57;;
18170;SDS011;9210;48.358;10.902;2022-10-13T01:05:45;25.90;;;14.77;;
18170;SDS011;9210;48.358;10.902;2022-10-13T01:08:15;102.73;;;20.37;;
18170;SDS011;9210;48.358;10.902;2022-10-13T01:10:44;42.00;;;17.87;;
18170;SDS011;9210;48.358;10.902;2022-10-13T01:13:16;32.17;;;17.47;;
18170;SDS011;9210;48.358;10.902;2022-10-13T01:15:49;36.60;;;17.20;;
18170;SDS011;9210;48.358;10.902;2022-10-13T01:18:19;22.93;;;15.13;;
18170;SDS011;9210;48.358;10.902;2022-10-13T01:20:52;66.87;;;19.57;;
18170;SDS011;9210;48.358;10.902;2022-10-13T01:26:13;40.67;;;17.90;;
18170;SDS011;9210;48.358;10.902;2022-10-13T01:28:52;26.37;;;16.00;;
18170;SDS011;9210;48.358;10.902;2022-10-13T01:31:26;75.07;;;18.73;;
18170;SDS011;9210;48.358;10.902;2022-10-13T01:33:56;24.17;;;14.83;;
18170;SDS011;9210;48.358;10.902;2022-10-13T01:36:30;66.33;;;19.30;;
18170;SDS011;9210;48.358;10.902;2022-10-13T01:39:02;24.47;;;16.10;;
18170;SDS011;9210;48.358;10.902;2022-10-13T01:41:33;27.53;;;15.23;;
18170;SDS011;9210;48.358;10.902;2022-10-13T01:44:05;51.57;;;18.90;;
18170;SDS011;9210;48.358;10.902;2022-10-13T01:46:41;46.80;;;18.47;;
18170;SDS011;9210;48.358;10.902;2022-10-13T01:49:14;29.13;;;16.97;;
18170;SDS011;9210;48.358;10.902;2022-10-13T01:51:43;38.37;;;17.87;;
18170;SDS011;9210;48.358;10.902;2022-10-13T01:54:13;22.47;;;15.13;;
18170;SDS011;9210;48.358;10.902;2022-10-13T01:56:49;27.37;;;17.80;;
18170;SDS011;9210;48.358;10.902;2022-10-13T01:59:18;28.30;;;17.20;;
18170;SDS011;9210;48.358;10.902;2022-10-13T02:01:51;39.37;;;19.77;;
18170;SDS011;9210;48.358;10.902;2022-10-13T02:04:23;29.97;;;18.27;;
18170;SDS011;9210;48.358;10.902;2022-10-13T02:06:55;34.33;;;19.33;;
18170;SDS011;9210;48.358;10.902;2022-10-13T02:09:26;37.03;;;20.60;;
18170;SDS011;9210;48.358;10.902;2022-10-13T02:11:55;60.23;;;24.83;;
18170;SDS011;9210;48.358;10.902;2022-10-13T02:14:32;28.07;;;17.33;;
18170;SDS011;9210;48.358;10.902;2022-10-13T02:17:03;24.57;;;16.83;;
18170;SDS011;9210;48.358;10.902;2022-10-13T02:19:33;31.03;;;19.27;;
18170;SDS011;9210;48.358;10.902;2022-10-13T02:22:03;27.70;;;17.47;;
18170;SDS011;9210;48.358;10.902;2022-10-13T02:24:32;29.33;;;17.90;;
18170;SDS011;9210;48.358;10.902;2022-10-13T02:27:01;27.93;;;18.43;;
18170;SDS011;9210;48.358;10.902;2022-10-13T02:29:31;32.60;;;20.87;;
18170;SDS011;9210;48.358;10.902;2022-10-13T02:31:59;36.73;;;21.53;;
18170;SDS011;9210;48.358;10.902;2022-10-13T02:34:29;28.20;;;18.97;;
18170;SDS011;9210;48.358;10.902;2022-10-13T02:36:57;27.43;;;18.43;;
18170;SDS011;9210;48.358;10.902;2022-10-13T02:39:26;28.47;;;19.10;;
18170;SDS011;9210;48.358;10.902;2022-10-13T02:41:54;27.80;;;17.93;;
18170;SDS011;9210;48.358;10.902;2022-10-13T02:44:23;32.23;;;19.70;;
18170;SDS011;9210;48.358;10.902;2022-10-13T02:46:52;25.13;;;16.20;;
18170;SDS011;9210;48.358;10.902;2022-10-13T02:49:20;23.03;;;15.40;;
18170;SDS011;9210;48.358;10.902;2022-10-13T02:51:50;23.87;;;15.40;;
18170;SDS011;9210;48.358;10.902;2022-10-13T02:54:19;22.73;;;15.37;;
18170;SDS011;9210;48.358;10.902;2022-10-13T02:56:48;21.97;;;14.70;;
18170;SDS011;9210;48.358;10.902;2022-10-13T02:59:16;28.63;;;18.37;;
18170;SDS011;9210;48.358;10.902;2022-10-13T03:01:45;24.93;;;15.80;;
18170;SDS011;9210;48.358;10.902;2022-10-13T03:04:13;23.50;;;16.03;;
18170;SDS011;9210;48.358;10.902;2022-10-13T03:06:41;18.03;;;13.00;;
18170;SDS011;9210;48.358;10.902;2022-10-13T03:09:13;19.60;;;14.00;;
18170;SDS011;9210;48.358;10.902;2022-10-13T03:11:42;18.67;;;12.93;;
18170;SDS011;9210;48.358;10.902;2022-10-13T03:14:10;16.00;;;11.63;;
18170;SDS011;9210;48.358;10.902;2022-10-13T03:16:39;25.00;;;16.40;;
18170;SDS011;9210;48.358;10.902;2022-10-13T03:19:08;17.43;;;12.47;;
18170;SDS011;9210;48.358;10.902;2022-10-13T03:21:37;15.73;;;11.33;;
18170;SDS011;9210;48.358;10.902;2022-10-13T03:24:05;20.83;;;14.00;;
18170;SDS011;9210;48.358;10.902;2022-10-13T03:26:35;24.47;;;14.67;;
18170;SDS011;9210;48.358;10.902;2022-10-13T03:29:04;24.33;;;14.97;;
18170;SDS011;9210;48.358;10.902;2022-10-13T03:31:32;17.10;;;12.30;;
18170;SDS011;9210;48.358;10.902;2022-10-13T03:34:01;22.30;;;14.23;;
18170;SDS011;9210;48.358;10.902;2022-10-13T03:36:29;23.03;;;15.10;;
18170;SDS011;9210;48.358;10.902;2022-10-13T03:38:58;25.20;;;15.40;;
18170;SDS011;9210;48.358;10.902;2022-10-13T03:41:26;19.63;;;13.07;;
18170;SDS011;9210;48.358;10.902;2022-10-13T03:43:56;17.37;;;12.33;;
18170;SDS011;9210;48.358;10.902;2022-10-13T03:46:31;23.00;;;15.20;;
18170;SDS011;9210;48.358;10.902;2022-10-13T03:48:59;23.97;;;15.07;;
18170;SDS011;9210;48.358;10.902;2022-10-13T03:51:31;24.50;;;15.77;;
18170;SDS011;9210;48.358;10.902;2022-10-13T03:53:59;18.77;;;13.60;;
18170;SDS011;9210;48.358;10.902;2022-10-13T03:56:28;22.93;;;14.77;;
18170;SDS011;9210;48.358;10.902;2022-10-13T03:58:58;19.70;;;13.90;;
18170;SDS011;9210;48.358;10.902;2022-10-13T04:01:30;17.60;;;12.47;;
18170;SDS011;9210;48.358;10.902;2022-10-13T04:03:59;17.43;;;12.43;;
18170;SDS011;9210;48.358;10.902;2022-10-13T04:06:28;16.73;;;12.33;;
18170;SDS011;9210;48.358;10.902;2022-10-13T04:08:59;21.33;;;14.20;;
18170;SDS011;9210;48.358;10.902;2022-10-13T04:11:28;21.73;;;14.43;;
18170;SDS011;9210;48.358;10.902;2022-10-13T04:13:58;20.73;;;13.90;;
18170;SDS011;9210;48.358;10.902;2022-10-13T04:16:27;18.27;;;12.57;;
18170;SDS011;9210;48.358;10.902;2022-10-13T04:18:58;23.20;;;15.07;;
18170;SDS011;9210;48.358;10.902;2022-10-13T04:21:27;23.40;;;15.37;;
18170;SDS011;9210;48.358;10.902;2022-10-13T04:23:56;23.67;;;15.37;;
18170;SDS011;9210;48.358;10.902;2022-10-13T04:26:26;23.83;;;15.63;;
18170;SDS011;9210;48.358;10.902;2022-10-13T04:28:58;27.13;;;16.40;;
18170;SDS011;9210;48.358;10.902;2022-10-13T04:31:27;22.53;;;12.93;;
18170;SDS011;9210;48.358;10.902;2022-10-13T04:33:56;22.13;;;13.20;;
18170;SDS011;9210;48.358;10.902;2022-10-13T04:36:24;27.63;;;16.13;;
18170;SDS011;9210;48.358;10.902;2022-10-13T04:38:53;22.57;;;15.27;;
18170;SDS011;9210;48.358;10.902;2022-10-13T04:41:22;23.30;;;15.23;;
18170;SDS011;9210;48.358;10.902;2022-10-13T04:43:51;18.60;;;13.23;;
18170;SDS011;9210;48.358;10.902;2022-10-13T04:46:22;21.40;;;14.07;;
18170;SDS011;9210;48.358;10.902;2022-10-13T04:48:53;22.20;;;14.63;;
18170;SDS011;9210;48.358;10.902;2022-10-13T04:51:27;26.37;;;17.20;;
18170;SDS011;9210;48.358;10.902;2022-10-13T04:53:56;26.10;;;16.77;;
18170;SDS011;9210;48.358;10.902;2022-10-13T04:56:25;21.57;;;14.70;;
18170;SDS011;9210;48.358;10.902;2022-10-13T04:58:57;26.80;;;17.40;;
18170;SDS011;9210;48.358;10.902;2022-10-13T05:01:27;28.90;;;16.50;;
18170;SDS011;9210;48.358;10.902;2022-10-13T05:03:57;26.57;;;16.37;;
18170;SDS011;9210;48.358;10.902;2022-10-13T05:06:27;30.27;;;16.73;;
18170;SDS011;9210;48.358;10.902;2022-10-13T05:08:55;32.03;;;18.70;;
18170;SDS011;9210;48.358;10.902;2022-10-13T05:11:24;23.63;;;14.07;;
18170;SDS011;9210;48.358;10.902;2022-10-13T05:13:53;32.37;;;16.80;;
18170;SDS011;9210;48.358;10.902;2022-10-13T05:16:22;36.77;;;17.80;;
18170;SDS011;9210;48.358;10.902;2022-10-13T05:18:52;24.93;;;15.17;;
18170;SDS011;9210;48.358;10.902;2022-10-13T05:21:22;25.87;;;16.33;;
18170;SDS011;9210;48.358;10.902;2022-10-13T05:23:51;29.87;;;16.50;;
18170;SDS011;9210;48.358;10.902;2022-10-13T05:26:21;23.70;;;14.43;;
18170;SDS011;9210;48.358;10.902;2022-10-13T05:28:53;25.47;;;16.00;;
18170;SDS011;9210;48.358;10.902;2022-10-13T05:31:24;29.60;;;14.87;;
18170;SDS011;9210;48.358;10.902;2022-10-13T05:33:55;29.47;;;17.37;;
18170;SDS011;9210;48.358;10.902;2022-10-13T05:36:24;29.40;;;16.33;;
18170;SDS011;9210;48.358;10.902;2022-10-13T05:38:56;34.83;;;17.77;;
18170;SDS011;9210;48.358;10.902;2022-10-13T05:41:25;29.27;;;16.37;;
18170;SDS011;9210;48.358;10.902;2022-10-13T05:43:55;25.77;;;14.70;;
18170;SDS011;9210;48.358;10.902;2022-10-13T05:46:24;27.80;;;15.97;;
18170;SDS011;9210;48.358;10.902;2022-10-13T05:48:53;25.33;;;16.10;;
18170;SDS011;9210;48.358;10.902;2022-10-13T05:51:23;21.50;;;12.83;;
18170;SDS011;9210;48.358;10.902;2022-10-13T05:53:54;20.93;;;13.87;;
18170;SDS011;9210;48.358;10.902;2022-10-13T05:56:26;21.70;;;13.93;;
18170;SDS011;9210;48.358;10.902;2022-10-13T05:58:58;41.40;;;19.73;;
18170;SDS011;9210;48.358;10.902;2022-10-13T06:01:27;34.07;;;16.10;;
18170;SDS011;9210;48.358;10.902;2022-10-13T06:03:59;31.23;;;17.00;;
18170;SDS011;9210;48.358;10.902;2022-10-13T06:06:31;23.30;;;14.07;;
18170;SDS011;9210;48.358;10.902;2022-10-13T06:08:59;23.93;;;14.50;;
18170;SDS011;9210;48.358;10.902;2022-10-13T06:11:28;28.07;;;15.97;;
18170;SDS011;9210;48.358;10.902;2022-10-13T06:13:56;20.33;;;13.37;;
18170;SDS011;9210;48.358;10.902;2022-10-13T06:16:25;24.80;;;13.33;;
18170;SDS011;9210;48.358;10.902;2022-10-13T06:18:55;27.73;;;14.90;;
18170;SDS011;9210;48.358;10.902;2022-10-13T06:21:23;28.47;;;16.37;;
18170;SDS011;9210;48.358;10.902;2022-10-13T06:23:56;18.47;;;12.80;;
18170;SDS011;9210;48.358;10.902;2022-10-13T06:26:27;30.43;;;16.90;;
18170;SDS011;9210;48.358;10.902;2022-10-13T06:28:56;25.13;;;15.50;;
18170;SDS011;9210;48.358;10.902;2022-10-13T06:31:25;24.53;;;14.37;;
18170;SDS011;9210;48.358;10.902;2022-10-13T06:33:54;26.40;;;14.53;;
18170;SDS011;9210;48.358;10.902;2022-10-13T06:36:22;22.53;;;13.00;;
18170;SDS011;9210;48.358;10.902;2022-10-13T06:38:51;24.97;;;15.13;;
18170;SDS011;9210;48.358;10.902;2022-10-13T06:41:21;17.63;;;12.03;;
18170;SDS011;9210;48.358;10.902;2022-10-13T06:43:49;23.00;;;13.10;;
18170;SDS011;9210;48.358;10.902;2022-10-13T06:46:19;25.50;;;14.37;;
18170;SDS011;9210;48.358;10.902;2022-10-13T06:48:48;26.93;;;15.27;;
18170;SDS011;9210;48.358;10.902;2022-10-13T06:51:18;19.17;;;12.97;;
18170;SDS011;9210;48.358;10.902;2022-10-13T06:53:47;22.27;;;13.30;;
18170;SDS011;9210;48.358;10.902;2022-10-13T06:56:22;23.03;;;14.00;;
18170;SDS011;9210;48.358;10.902;2022-10-13T06:58:51;26.30;;;12.60;;
18170;SDS011;9210;48.358;10.902;2022-10-13T07:01:19;30.50;;;16.67;;
18170;SDS011;9210;48.358;10.902;2022-10-13T07:03:48;24.57;;;13.80;;
18170;SDS011;9210;48.358;10.902;2022-10-13T07:06:19;27.63;;;15.30;;
18170;SDS011;9210;48.358;10.902;2022-10-13T07:08:49;32.13;;;15.03;;
18170;SDS011;9210;48.358;10.902;2022-10-13T07:11:18;23.80;;;13.20;;
18170;SDS011;9210;48.358;10.902;2022-10-13T07:13:52;29.80;;;15.10;;
18170;SDS011;9210;48.358;10.902;2022-10-13T07:16:21;24.70;;;14.67;;
18170;SDS011;9210;48.358;10.902;2022-10-13T07:18:50;23.20;;;13.70;;
18170;SDS011;9210;48.358;10.902;2022-10-13T07:21:18;23.13;;;13.17;;
18170;SDS011;9210;48.358;10.902;2022-10-13T07:23:48;27.87;;;16.53;;
18170;SDS011;9210;48.358;10.902;2022-10-13T07:26:16;30.93;;;14.97;;
18170;SDS011;9210;48.358;10.902;2022-10-13T07:28:45;26.63;;;14.93;;
18170;SDS011;9210;48.358;10.902;2022-10-13T07:31:15;23.57;;;13.30;;
18170;SDS011;9210;48.358;10.902;2022-10-13T07:33:45;26.30;;;13.03;;
18170;SDS011;9210;48.358;10.902;2022-10-13T07:36:15;20.27;;;11.43;;
18170;SDS011;9210;48.358;10.902;2022-10-13T07:38:43;24.73;;;12.87;;
18170;SDS011;9210;48.358;10.902;2022-10-13T07:41:12;24.63;;;14.50;;
18170;SDS011;9210;48.358;10.902;2022-10-13T07:43:41;22.67;;;12.30;;
18170;SDS011;9210;48.358;10.902;2022-10-13T07:46:11;28.37;;;15.30;;
18170;SDS011;9210;48.358;10.902;2022-10-13T07:48:41;21.33;;;12.90;;
18170;SDS011;9210;48.358;10.902;2022-10-13T07:51:10;27.90;;;14.17;;
18170;SDS011;9210;48.358;10.902;2022-10-13T07:53:39;21.40;;;13.23;;
18170;SDS011;9210;48.358;10.902;2022-10-13T07:56:09;28.80;;;14.80;;
18170;SDS011;9210;48.358;10.902;2022-10-13T07:58:39;23.60;;;13.43;;
18170;SDS011;9210;48.358;10.902;2022-10-13T08:01:08;23.33;;;14.43;;
18170;SDS011;9210;48.358;10.902;2022-10-13T08:03:37;24.73;;;13.13;;
18170;SDS011;9210;48.358;10.902;2022-10-13T08:06:16;32.13;;;16.70;;
18170;SDS011;9210;48.358;10.902;2022-10-13T08:08:45;26.17;;;14.17;;
18170;SDS011;9210;48.358;10.902;2022-10-13T08:11:15;22.23;;;12.90;;
18170;SDS011;9210;48.358;10.902;2022-10-13T08:13:47;24.53;;;14.93;;
18170;SDS011;9210;48.358;10.902;2022-10-13T08:16:19;23.83;;;13.03;;
18170;SDS011;9210;48.358;10.902;2022-10-13T08:18:47;28.20;;;15.10;;
18170;SDS011;9210;48.358;10.902;2022-10-13T08:21:18;32.20;;;17.13;;
18170;SDS011;9210;48.358;10.902;2022-10-13T08:24:08;29.50;;;15.83;;
18170;SDS011;9210;48.358;10.902;2022-10-13T08:26:38;27.93;;;14.13;;
18170;SDS011;9210;48.358;10.902;2022-10-13T08:29:07;26.67;;;14.63;;
18170;SDS011;9210;48.358;10.902;2022-10-13T08:31:51;29.63;;;17.13;;
18170;SDS011;9210;48.358;10.902;2022-10-13T08:34:20;29.20;;;16.37;;
18170;SDS011;9210;48.358;10.902;2022-10-13T08:36:50;40.00;;;18.73;;
18170;SDS011;9210;48.358;10.902;2022-10-13T08:39:22;35.70;;;16.90;;
18170;SDS011;9210;48.358;10.902;2022-10-13T08:41:50;25.63;;;15.30;;
18170;SDS011;9210;48.358;10.902;2022-10-13T08:44:21;29.17;;;16.23;;
18170;SDS011;9210;48.358;10.902;2022-10-13T08:47:12;26.07;;;14.40;;
18170;SDS011;9210;48.358;10.902;2022-10-13T08:49:42;27.93;;;14.97;;
18170;SDS011;9210;48.358;10.902;2022-10-13T08:52:15;30.47;;;16.10;;
18170;SDS011;9210;48.358;10.902;2022-10-13T08:54:45;39.23;;;17.87;;
18170;SDS011;9210;48.358;10.902;2022-10-13T08:57:13;27.47;;;15.20;;
18170;SDS011;9210;48.358;10.902;2022-10-13T08:59:43;29.03;;;15.53;;
18170;SDS011;9210;48.358;10.902;2022-10-13T09:02:11;27.60;;;15.67;;
18170;SDS011;9210;48.358;10.902;2022-10-13T09:04:41;25.40;;;14.03;;
18170;SDS011;9210;48.358;10.902;2022-10-13T09:07:12;30.13;;;14.87;;
18170;SDS011;9210;48.358;10.902;2022-10-13T09:09:44;29.13;;;16.17;;
18170;SDS011;9210;48.358;10.902;2022-10-13T09:12:12;28.93;;;14.63;;
18170;SDS011;9210;48.358;10.902;2022-10-13T09:14:41;35.37;;;17.80;;
18170;SDS011;9210;48.358;10.902;2022-10-13T09:17:16;31.00;;;16.33;;
18170;SDS011;9210;48.358;10.902;2022-10-13T09:19:45;31.20;;;14.40;;
18170;SDS011;9210;48.358;10.902;2022-10-13T09:22:25;25.73;;;14.20;;
18170;SDS011;9210;48.358;10.902;2022-10-13T09:25:15;30.30;;;15.37;;
18170;SDS011;9210;48.358;10.902;2022-10-13T09:27:47;28.53;;;14.60;;
18170;SDS011;9210;48.358;10.902;2022-10-13T09:30:23;32.03;;;14.63;;
18170;SDS011;9210;48.358;10.902;2022-10-13T09:32:55;31.63;;;15.63;;
18170;SDS011;9210;48.358;10.902;2022-10-13T09:35:26;34.43;;;15.63;;
18170;SDS011;9210;48.358;10.902;2022-10-13T09:38:02;30.80;;;14.37;;
18170;SDS011;9210;48.358;10.902;2022-10-13T09:40:32;29.40;;;14.10;;
18170;SDS011;9210;48.358;10.902;2022-10-13T09:43:16;30.53;;;13.90;;
18170;SDS011;9210;48.358;10.902;2022-10-13T09:45:46;25.70;;;12.73;;
18170;SDS011;9210;48.358;10.902;2022-10-13T09:48:15;26.37;;;13.77;;
18170;SDS011;9210;48.358;10.902;2022-10-13T09:50:46;26.13;;;13.07;;
18170;SDS011;9210;48.358;10.902;2022-10-13T09:53:16;23.20;;;10.97;;
18170;SDS011;9210;48.358;10.902;2022-10-13T09:55:49;20.23;;;11.43;;
18170;SDS011;9210;48.358;10.902;2022-10-13T09:58:19;23.80;;;10.53;;
18170;SDS011;9210;48.358;10.902;2022-10-13T10:00:49;22.20;;;10.20;;
18170;SDS011;9210;48.358;10.902;2022-10-13T10:05:51;21.07;;;10.57;;
18170;SDS011;9210;48.358;10.902;2022-10-13T10:08:24;19.93;;;10.83;;
18170;SDS011;9210;48.358;10.902;2022-10-13T10:11:09;19.70;;;9.77;;
18170;SDS011;9210;48.358;10.902;2022-10-13T10:13:39;21.70;;;9.47;;
18170;SDS011;9210;48.358;10.902;2022-10-13T10:16:08;18.33;;;9.20;;
18170;SDS011;9210;48.358;10.902;2022-10-13T10:18:40;17.13;;;8.87;;
18170;SDS011;9210;48.358;10.902;2022-10-13T10:21:11;16.57;;;8.40;;
18170;SDS011;9210;48.358;10.902;2022-10-13T10:23:45;21.77;;;8.83;;
18170;SDS011;9210;48.358;10.902;2022-10-13T10:26:17;20.17;;;9.70;;
18170;SDS011;9210;48.358;10.902;2022-10-13T10:31:40;26.70;;;9.77;;
18170;SDS011;9210;48.358;10.902;2022-10-13T10:34:25;19.60;;;9.07;;
18170;SDS011;9210;48.358;10.902;2022-10-13T10:36:56;23.47;;;9.30;;
18170;SDS011;9210;48.358;10.902;2022-10-13T10:39:35;22.63;;;9.68;;
18170;SDS011;9210;48.358;10.902;2022-10-13T10:42:06;19.80;;;8.53;;
18170;SDS011;9210;48.358;10.902;2022-10-13T10:44:41;16.07;;;8.57;;
18170;SDS011;9210;48.358;10.902;2022-10-13T10:47:12;16.07;;;8.17;;
18170;SDS011;9210;48.358;10.902;2022-10-13T10:49:48;16.60;;;8.17;;
18170;SDS011;9210;48.358;10.902;2022-10-13T10:52:19;22.30;;;9.07;;
18170;SDS011;9210;48.358;10.902;2022-10-13T10:54:56;18.97;;;8.77;;
18170;SDS011;9210;48.358;10.902;2022-10-13T10:57:31;13.63;;;7.23;;
18170;SDS011;9210;48.358;10.902;2022-10-13T11:00:03;17.77;;;8.53;;
18170;SDS011;9210;48.358;10.902;2022-10-13T11:02:41;22.97;;;8.73;;
18170;SDS011;9210;48.358;10.902;2022-10-13T11:05:11;18.43;;;8.27;;
18170;SDS011;9210;48.358;10.902;2022-10-13T11:07:55;22.13;;;8.47;;
18170;SDS011;9210;48.358;10.902;2022-10-13T11:10:25;12.60;;;7.20;;
18170;SDS011;9210;48.358;10.902;2022-10-13T11:15:53;20.35;;;9.15;;
18170;SDS011;9210;48.358;10.902;2022-10-13T11:21:09;21.73;;;8.27;;
18170;SDS011;9210;48.358;10.902;2022-10-13T11:23:42;19.67;;;8.53;;
18170;SDS011;9210;48.358;10.902;2022-10-13T11:26:18;17.23;;;7.60;;
18170;SDS011;9210;48.358;10.902;2022-10-13T11:28:47;17.00;;;7.60;;
18170;SDS011;9210;48.358;10.902;2022-10-13T11:31:24;17.27;;;7.75;;
18170;SDS011;9210;48.358;10.902;2022-10-13T11:34:00;16.88;;;7.60;;
18170;SDS011;9210;48.358;10.902;2022-10-13T11:42:13;21.23;;;7.00;;
18170;SDS011;9210;48.358;10.902;2022-10-13T11:44:47;15.70;;;6.40;;
18170;SDS011;9210;48.358;10.902;2022-10-13T11:47:24;14.05;;;7.13;;
18170;SDS011;9210;48.358;10.902;2022-10-13T11:50:00;19.50;;;7.57;;
18170;SDS011;9210;48.358;10.902;2022-10-13T11:52:47;16.38;;;6.70;;
18170;SDS011;9210;48.358;10.902;2022-10-13T11:55:18;12.60;;;6.10;;
18170;SDS011;9210;48.358;10.902;2022-10-13T11:57:48;13.90;;;6.55;;
18170;SDS011;9210;48.358;10.902;2022-10-13T12:00:17;18.85;;;6.70;;
18170;SDS011;9210;48.358;10.902;2022-10-13T12:02:48;16.42;;;6.47;;
18170;SDS011;9210;48.358;10.902;2022-10-13T12:05:19;16.88;;;6.53;;
18170;SDS011;9210;48.358;10.902;2022-10-13T12:07:48;18.38;;;7.40;;
18170;SDS011;9210;48.358;10.902;2022-10-13T12:10:28;14.80;;;7.20;;
18170;SDS011;9210;48.358;10.902;2022-10-13T12:12:58;16.48;;;7.65;;
18170;SDS011;9210;48.358;10.902;2022-10-13T12:15:30;13.70;;;6.93;;
18170;SDS011;9210;48.358;10.902;2022-10-13T12:18:00;19.02;;;6.95;;
18170;SDS011;9210;48.358;10.902;2022-10-13T12:20:29;14.02;;;6.63;;
18170;SDS011;9210;48.358;10.902;2022-10-13T12:22:58;17.38;;;7.93;;
18170;SDS011;9210;48.358;10.902;2022-10-13T12:25:28;16.88;;;8.00;;
18170;SDS011;9210;48.358;10.902;2022-10-13T12:27:59;18.05;;;6.63;;
18170;SDS011;9210;48.358;10.902;2022-10-13T12:30:28;14.98;;;6.90;;
18170;SDS011;9210;48.358;10.902;2022-10-13T12:32:57;22.17;;;8.77;;
18170;SDS011;9210;48.358;10.902;2022-10-13T12:35:28;19.58;;;8.18;;
18170;SDS011;9210;48.358;10.902;2022-10-13T12:37:59;16.77;;;8.30;;
18170;SDS011;9210;48.358;10.902;2022-10-13T12:40:30;13.95;;;6.95;;
18170;SDS011;9210;48.358;10.902;2022-10-13T12:42:58;14.38;;;7.15;;
18170;SDS011;9210;48.358;10.902;2022-10-13T12:45:29;13.07;;;6.55;;
18170;SDS011;9210;48.358;10.902;2022-10-13T12:47:59;15.70;;;7.53;;
18170;SDS011;9210;48.358;10.902;2022-10-13T12:50:33;17.70;;;7.95;;
18170;SDS011;9210;48.358;10.902;2022-10-13T12:55:54;15.23;;;7.00;;
18170;SDS011;9210;48.358;10.902;2022-10-13T12:58:26;14.95;;;7.32;;
18170;SDS011;9210;48.358;10.902;2022-10-13T13:01:05;20.83;;;8.10;;
18170;SDS011;9210;48.358;10.902;2022-10-13T13:03:35;19.60;;;7.85;;
18170;SDS011;9210;48.358;10.902;2022-10-13T13:06:09;18.50;;;7.68;;
18170;SDS011;9210;48.358;10.902;2022-10-13T13:08:39;16.90;;;7.68;;
18170;SDS011;9210;48.358;10.902;2022-10-13T13:11:18;22.10;;;8.98;;
18170;SDS011;9210;48.358;10.902;2022-10-13T13:13:47;20.45;;;8.73;;
18170;SDS011;9210;48.358;10.902;2022-10-13T13:16:17;18.25;;;9.18;;
18170;SDS011;9210;48.358;10.902;2022-10-13T13:18:46;21.70;;;9.68;;
18170;SDS011;9210;48.358;10.902;2022-10-13T13:21:18;22.60;;;9.98;;
18170;SDS011;9210;48.358;10.902;2022-10-13T13:23:47;19.85;;;9.18;;
18170;SDS011;9210;48.358;10.902;2022-10-13T13:26:20;17.73;;;9.07;;
18170;SDS011;9210;48.358;10.902;2022-10-13T13:28:49;23.90;;;9.40;;
18170;SDS011;9210;48.358;10.902;2022-10-13T13:31:19;19.58;;;8.98;;
18170;SDS011;9210;48.358;10.902;2022-10-13T13:33:48;18.35;;;7.88;;
18170;SDS011;9210;48.358;10.902;2022-10-13T13:36:19;19.33;;;9.57;;
18170;SDS011;9210;48.358;10.902;2022-10-13T13:38:49;18.00;;;8.93;;
18170;SDS011;9210;48.358;10.902;2022-10-13T13:41:18;25.92;;;8.10;;
18170;SDS011;9210;48.358;10.902;2022-10-13T13:43:47;19.20;;;8.15;;
18170;SDS011;9210;48.358;10.902;2022-10-13T13:46:16;22.13;;;8.80;;
18170;SDS011;9210;48.358;10.902;2022-10-13T13:48:45;20.60;;;10.00;;
18170;SDS011;9210;48.358;10.902;2022-10-13T13:51:14;24.98;;;9.30;;
18170;SDS011;9210;48.358;10.902;2022-10-13T13:53:45;20.75;;;9.52;;
18170;SDS011;9210;48.358;10.902;2022-10-13T13:56:14;21.73;;;8.48;;
18170;SDS011;9210;48.358;10.902;2022-10-13T13:58:43;18.90;;;8.82;;
18170;SDS011;9210;48.358;10.902;2022-10-13T14:01:12;17.92;;;8.13;;
18170;SDS011;9210;48.358;10.902;2022-10-13T14:03:41;19.23;;;9.20;;
18170;SDS011;9210;48.358;10.902;2022-10-13T14:06:17;20.95;;;7.90;;
18170;SDS011;9210;48.358;10.902;2022-10-13T14:08:47;21.02;;;7.95;;
18170;SDS011;9210;48.358;10.902;2022-10-13T14:11:15;15.55;;;7.40;;
18170;SDS011;9210;48.358;10.902;2022-10-13T14:13:44;16.65;;;7.22;;
18170;SDS011;9210;48.358;10.902;2022-10-13T14:16:22;15.65;;;7.13;;
18170;SDS011;9210;48.358;10.902;2022-10-13T14:18:51;16.85;;;6.68;;
18170;SDS011;9210;48.358;10.902;2022-10-13T14:21:23;11.38;;;6.20;;
18170;SDS011;9210;48.358;10.902;2022-10-13T14:23:56;15.63;;;6.47;;
18170;SDS011;9210;48.358;10.902;2022-10-13T14:26:25;18.98;;;7.43;;
18170;SDS011;9210;48.358;10.902;2022-10-13T14:28:53;17.73;;;7.28;;
18170;SDS011;9210;48.358;10.902;2022-10-13T14:31:21;12.35;;;6.53;;
18170;SDS011;9210;48.358;10.902;2022-10-13T14:33:50;23.60;;;6.68;;
18170;SDS011;9210;48.358;10.902;2022-10-13T14:36:22;17.65;;;7.15;;
18170;SDS011;9210;48.358;10.902;2022-10-13T14:38:50;12.85;;;6.80;;
18170;SDS011;9210;48.358;10.902;2022-10-13T14:41:21;15.40;;;7.00;;
18170;SDS011;9210;48.358;10.902;2022-10-13T14:43:50;12.93;;;6.72;;
18170;SDS011;9210;48.358;10.902;2022-10-13T14:46:20;14.10;;;6.65;;
18170;SDS011;9210;48.358;10.902;2022-10-13T14:48:48;14.35;;;6.53;;
18170;SDS011;9210;48.358;10.902;2022-10-13T14:51:17;16.95;;;7.30;;
18170;SDS011;9210;48.358;10.902;2022-10-13T14:53:46;11.95;;;6.50;;
18170;SDS011;9210;48.358;10.902;2022-10-13T14:56:15;15.75;;;6.90;;
18170;SDS011;9210;48.358;10.902;2022-10-13T14:58:49;14.20;;;7.65;;
18170;SDS011;9210;48.358;10.902;2022-10-13T15:01:18;21.10;;;8.77;;
18170;SDS011;9210;48.358;10.902;2022-10-13T15:03:47;18.80;;;8.18;;
18170;SDS011;9210;48.358;10.902;2022-10-13T15:06:16;17.40;;;7.47;;
18170;SDS011;9210;48.358;10.902;2022-10-13T15:08:46;19.40;;;7.65;;